Happy Valley, Oregon
Current Conditions -  °F | °C
As of 7:53 PM on Wednesday 22 Oct 2014 (Local Time) from KTTD Reporting Station
Light Rain Light Rain  
Wind Chill: 58°   Ceiling: 7500
Heat Index: 58°   Visibility: 10mi
Dew Point: 55°   Wind: 3mph
Humidity: 90%   Direction: 80°E
Pressure: 29.71"   Gusts: NA
Location:  45.45°N, 122.53°W
Report Text: KTTD 230253Z 08003KT 10SM -RA OVC075 14/13 A2971 RMK AO2 SLP060 P0003 60020 T01440128 56004
Loading
Personal Weather Stations






























Interactive Weather Map
Tropical Storm Tracking
New forecast layout! Learn more

10-Day Weather Forecast

Advertisements
Track Severe Weather on mobile